Time;durP1;ratioP1;P1;durP2;ratioP2;P2;SDS_P1;SDS_P2;PMS_P1;PMS_P2;Temp;Humidity;BMP_temperature;BMP_pressure;BME280_temperature;BME280_humidity;BME280_pressure;Samples;Min_cycle;Max_cycle;Signal;HPM_P1;HPM_P2
2022/09/14 00:00:31;;;;;;;2.57;2.40;;;;;;;19.48;100.00;99376.59;5034634;28;20482;-57
2022/09/14 00:02:57;;;;;;;6.77;3.13;;;;;;;19.52;100.00;99391.56;5040881;28;20460;-57
2022/09/14 00:05:24;;;;;;;3.17;2.93;;;;;;;19.44;100.00;99396.69;5044021;28;20590;-57
2022/09/14 00:07:51;;;;;;;12.50;3.47;;;;;;;19.40;100.00;99399.75;5049937;28;20451;-57
2022/09/14 00:10:17;;;;;;;8.70;2.03;;;;;;;19.37;100.00;99403.56;5033619;28;20852;-57
2022/09/14 00:12:44;;;;;;;2.20;2.03;;;;;;;19.57;100.00;99417.31;5040223;28;20512;-57
2022/09/14 00:15:10;;;;;;;2.53;2.23;;;;;;;19.56;100.00;99434.47;5033163;28;20471;-57
2022/09/14 00:17:36;;;;;;;3.70;2.33;;;;;;;19.79;100.00;99455.06;5041779;28;20516;-57
2022/09/14 00:20:03;;;;;;;3.03;2.57;;;;;;;19.90;100.00;99468.56;5032727;28;20452;-57
2022/09/14 00:22:29;;;;;;;3.00;2.80;;;;;;;19.76;100.00;99477.75;5057251;28;20950;-58
2022/09/14 00:24:56;;;;;;;3.07;2.87;;;;;;;19.65;100.00;99483.13;5038342;28;20458;-57
2022/09/14 00:27:22;;;;;;;5.20;3.20;;;;;;;19.46;100.00;99489.09;5046093;28;20946;-57
2022/09/14 00:29:49;;;;;;;2.30;2.10;;;;;;;19.36;100.00;99471.91;5045621;28;20549;-57
2022/09/14 00:32:15;;;;;;;3.53;2.70;;;;;;;19.64;100.00;99456.31;5030616;28;20513;-57
2022/09/14 00:34:42;;;;;;;5.37;4.87;;;;;;;19.47;100.00;99439.59;5043743;28;20455;-57
2022/09/14 00:37:09;;;;;;;9.07;2.40;;;;;;;19.38;100.00;99428.66;5043518;28;20548;-57
2022/09/14 00:39:36;;;;;;;3.13;2.93;;;;;;;19.46;100.00;99429.78;5031475;28;20509;-58
2022/09/14 00:42:04;;;;;;;12.57;2.73;;;;;;;19.47;100.00;99411.78;5042564;28;20994;-57
2022/09/14 00:44:30;;;;;;;2.57;2.47;;;;;;;19.43;100.00;99396.81;5031690;28;20455;-57
2022/09/14 00:46:59;;;;;;;3.83;3.53;;;;;;;18.96;100.00;99374.47;5042121;28;20995;-57
2022/09/14 00:49:30;;;;;;;5.43;5.00;;;;;;;18.82;100.00;99370.16;5030662;28;20491;-57
2022/09/14 00:52:11;;;;;;;5.43;3.13;;;;;;;18.88;100.00;99374.19;5043163;28;20950;-57
2022/09/14 00:54:45;;;;;;;4.00;3.70;;;;;;;18.77;100.00;99355.31;5041639;28;20456;-57
2022/09/14 00:57:11;;;;;;;3.00;2.70;;;;;;;18.97;100.00;99351.94;5032557;28;21010;-57
2022/09/14 00:59:40;;;;;;;7.87;3.37;;;;;;;19.09;100.00;99353.69;5040339;28;20454;-57
2022/09/14 01:02:09;;;;;;;3.73;2.23;;;;;;;19.20;100.00;99369.00;5033143;28;20455;-57
2022/09/14 01:04:36;;;;;;;4.13;3.70;;;;;;;19.66;100.00;99374.28;5039300;28;20462;-58
2022/09/14 01:07:31;;;;;;;3.83;2.77;;;;;;;19.33;100.00;99368.91;5041706;28;20496;-57
2022/09/14 01:10:14;;;;;;;4.97;3.03;;;;;;;19.30;100.00;99359.19;5035394;28;20919;-58
2022/09/14 01:12:49;;;;;;;3.00;2.80;;;;;;;19.21;100.00;99355.41;5039613;28;20479;-58
2022/09/14 01:15:53;;;;;;;7.63;3.30;;;;;;;19.38;100.00;99345.13;5031301;28;20457;-58
2022/09/14 01:18:22;;;;;;;2.07;1.97;;;;;;;19.27;100.00;99326.25;5023751;28;20452;-58
2022/09/14 01:20:54;;;;;;;2.70;2.50;;;;;;;19.38;100.00;99331.66;5031049;28;20451;-58
2022/09/14 01:23:23;;;;;;;3.67;2.87;;;;;;;19.53;100.00;99328.56;5057637;28;20878;-58
2022/09/14 01:26:23;;;;;;;4.13;3.93;;;;;;;19.18;100.00;99315.22;5041195;28;21015;-57
2022/09/14 01:29:18;;;;;;;3.60;3.40;;;;;;;19.21;100.00;99303.34;5039902;28;20802;-58
2022/09/14 01:32:00;;;;;;;2.80;2.27;;;;;;;19.20;100.00;99289.03;5041923;28;20465;-57
2022/09/14 01:34:33;;;;;;;4.30;3.47;;;;;;;19.34;100.00;99292.44;5032176;28;20426;-57
2022/09/14 01:37:11;;;;;;;3.27;3.07;;;;;;;19.31;100.00;99287.28;5049115;28;20441;-58
2022/09/14 01:39:46;;;;;;;4.10;3.40;;;;;;;19.33;100.00;99286.22;5030241;28;20447;-58
2022/09/14 01:42:13;;;;;;;3.90;3.57;;;;;;;19.29;100.00;99265.00;5042076;28;20536;-58
2022/09/14 01:44:45;;;;;;;7.57;3.73;;;;;;;19.33;100.00;99266.47;5029145;28;20484;-57
2022/09/14 01:47:19;;;;;;;9.37;2.43;;;;;;;19.50;100.00;99264.13;5042609;28;20450;-58
2022/09/14 01:49:51;;;;;;;5.03;2.63;;;;;;;19.10;100.00;99266.50;5029467;28;20558;-57
2022/09/14 01:52:23;;;;;;;3.20;2.47;;;;;;;19.24;100.00;99260.84;5042592;28;20451;-58
2022/09/14 01:54:56;;;;;;;1.40;1.30;;;;;;;19.23;100.00;99269.91;5029000;28;20936;-58
2022/09/14 01:57:35;;;;;;;1.60;1.50;;;;;;;19.58;100.00;99274.28;5042413;28;20934;-58
2022/09/14 02:00:08;;;;;;;2.97;1.70;;;;;;;19.40;100.00;99276.63;5029238;28;20443;-58
2022/09/14 02:02:40;;;;;;;3.33;3.13;;;;;;;19.40;100.00;99276.63;5035913;28;20569;-58
2022/09/14 02:05:25;;;;;;;3.50;3.30;;;;;;;19.37;100.00;99276.03;5034207;28;20479;-58
2022/09/14 02:07:51;;;;;;;5.30;3.13;;;;;;;19.38;100.00;99266.97;5048107;28;20450;-57
2022/09/14 02:10:18;;;;;;;2.97;2.77;;;;;;;19.45;100.00;99271.72;5031466;28;20520;-58
2022/09/14 02:12:44;;;;;;;2.37;2.07;;;;;;;19.39;100.00;99269.53;5038586;28;20584;-57
2022/09/14 02:15:13;;;;;;;5.13;4.13;;;;;;;19.22;100.00;99270.03;5031585;28;20530;-57
2022/09/14 02:17:40;;;;;;;4.03;3.13;;;;;;;19.33;100.00;99270.03;5039978;28;20454;-58
2022/09/14 02:20:14;;;;;;;4.50;3.10;;;;;;;19.32;100.00;99264.75;5030717;28;20452;-58
2022/09/14 02:22:41;;;;;;;2.97;2.77;;;;;;;19.29;100.00;99271.25;5058335;28;20524;-58
2022/09/14 02:25:07;;;;;;;3.53;3.23;;;;;;;19.34;100.00;99281.66;5035186;28;20470;-57
2022/09/14 02:27:33;;;;;;;3.33;3.13;;;;;;;19.53;100.00;99279.19;5045073;28;20509;-58
2022/09/14 02:30:00;;;;;;;7.07;3.03;;;;;;;19.87;100.00;99295.28;5043470;28;20992;-57
2022/09/14 02:32:50;;;;;;;3.47;3.13;;;;;;;19.45;100.00;99292.41;5029095;28;20966;-57
2022/09/14 02:35:26;;;;;;;4.40;4.00;;;;;;;19.29;100.00;99290.09;5030158;28;20483;-57
2022/09/14 02:38:14;;;;;;;12.33;4.17;;;;;;;19.24;100.00;99282.41;5043915;28;20452;-57
2022/09/14 02:41:11;;;;;;;3.73;3.33;;;;;;;19.31;100.00;99284.59;5029205;28;20570;-57
2022/09/14 02:43:54;;;;;;;11.50;3.30;;;;;;;19.27;100.00;99286.69;5036925;28;20454;-57
2022/09/14 02:46:34;;;;;;;3.07;2.87;;;;;;;19.27;100.00;99284.00;5036356;28;20445;-57
2022/09/14 02:49:11;;;;;;;1.60;1.50;;;;;;;19.55;100.00;99285.34;5032226;28;20479;-57
2022/09/14 02:51:59;;;;;;;6.03;3.10;;;;;;;19.51;100.00;99287.41;5042912;28;20527;-57
2022/09/14 02:54:31;;;;;;;4.70;3.17;;;;;;;19.29;100.00;99290.09;5044691;28;20979;-57
2022/09/14 02:57:02;;;;;;;5.60;2.90;;;;;;;19.29;100.00;99287.41;5033879;28;20458;-57
2022/09/14 02:59:29;;;;;;;2.93;2.57;;;;;;;19.23;100.00;99285.22;5042942;28;20942;-57
2022/09/14 03:01:57;;;;;;;3.60;3.30;;;;;;;19.23;100.00;99280.69;5034374;28;20471;-57
2022/09/14 03:04:24;;;;;;;3.20;2.60;;;;;;;19.22;100.00;99275.44;5042720;28;20455;-57
2022/09/14 03:06:50;;;;;;;4.80;2.83;;;;;;;19.30;100.00;99281.03;5042652;28;20490;-57
2022/09/14 03:09:17;;;;;;;8.80;4.30;;;;;;;19.24;100.00;99270.78;5042523;28;20452;-58
2022/09/14 03:11:43;;;;;;;4.53;4.10;;;;;;;19.16;100.00;99276.75;5034849;28;20544;-57
2022/09/14 03:14:10;;;;;;;5.03;4.53;;;;;;;19.16;100.00;99271.38;5042032;28;20495;-58
2022/09/14 03:16:38;;;;;;;8.90;4.33;;;;;;;19.28;100.00;99263.28;5034694;28;20986;-58
2022/09/14 03:19:05;;;;;;;4.33;3.93;;;;;;;19.44;100.00;99263.75;5042229;28;20811;-58
2022/09/14 03:21:31;;;;;;;3.57;3.30;;;;;;;19.66;100.00;99268.28;5042645;28;20545;-57
2022/09/14 03:23:58;;;;;;;5.20;4.70;;;;;;;19.62;100.00;99269.53;5061224;28;20454;-57
2022/09/14 03:26:26;;;;;;;13.10;6.30;;;;;;;19.89;100.00;99258.28;5034457;28;20475;-58
2022/09/14 03:28:55;;;;;;;5.90;5.33;;;;;;;19.48;100.00;99247.22;5042023;28;20451;-58
2022/09/14 03:31:23;;;;;;;5.73;4.17;;;;;;;19.14;100.00;99230.22;5033513;28;20849;-57
2022/09/14 03:33:55;;;;;;;8.40;4.60;;;;;;;18.99;100.00;99223.38;5042821;28;20446;-57
2022/09/14 03:36:23;;;;;;;4.37;4.03;;;;;;;18.86;100.00;99218.13;5039560;28;20500;-57
2022/09/14 03:38:52;;;;;;;5.87;5.30;;;;;;;18.84;100.00;99205.78;5038891;28;20451;-57
2022/09/14 03:41:20;;;;;;;20.30;3.73;;;;;;;18.86;100.00;99198.41;5035873;28;20576;-57
2022/09/14 03:43:46;;;;;;;4.60;4.20;;;;;;;18.97;100.00;99200.25;5038723;28;20429;-57
2022/09/14 03:46:21;;;;;;;4.80;4.40;;;;;;;19.00;100.00;99194.63;5037701;28;20475;-58
2022/09/14 03:48:48;;;;;;;3.00;2.70;;;;;;;19.08;100.00;99193.03;5037275;28;20481;-57
2022/09/14 03:51:16;;;;;;;3.97;3.67;;;;;;;19.15;100.00;99199.59;5039180;28;20544;-58
2022/09/14 03:53:43;;;;;;;5.13;4.30;;;;;;;19.09;100.00;99199.28;5036521;28;20459;-57
2022/09/14 03:56:13;;;;;;;4.17;3.90;;;;;;;19.05;100.00;99212.13;5045237;28;20481;-57
2022/09/14 03:58:40;;;;;;;5.13;4.70;;;;;;;19.14;100.00;99208.69;5035841;28;20471;-57
2022/09/14 04:01:11;;;;;;;5.93;5.43;;;;;;;19.19;100.00;99201.09;5040077;28;20941;-57
2022/09/14 04:03:37;;;;;;;5.83;3.90;;;;;;;19.31;100.00;99214.53;5032858;28;20928;-58
2022/09/14 04:06:05;;;;;;;5.27;4.70;;;;;;;19.25;100.00;99215.88;5040990;28;20479;-58
2022/09/14 04:08:37;;;;;;;4.53;4.23;;;;;;;19.28;100.00;99209.38;5032910;28;20451;-58
2022/09/14 04:11:16;;;;;;;5.13;4.67;;;;;;;19.19;100.00;99214.56;5041387;28;20550;-58
2022/09/14 04:13:43;;;;;;;4.10;3.80;;;;;;;19.20;100.00;99208.19;5035424;28;21021;-57
2022/09/14 04:16:10;;;;;;;5.97;4.30;;;;;;;19.17;100.00;99215.66;5039208;28;20475;-58
2022/09/14 04:18:36;;;;;;;4.67;4.27;;;;;;;19.15;100.00;99210.38;5035627;28;20820;-58
2022/09/14 04:21:10;;;;;;;5.83;5.27;;;;;;;19.13;100.00;99200.72;5050891;28;20455;-58
2022/09/14 04:23:37;;;;;;;4.90;4.57;;;;;;;19.19;100.00;99203.78;5038302;28;20451;-58
2022/09/14 04:26:25;;;;;;;3.73;3.43;;;;;;;19.18;100.00;99211.97;5033991;28;20937;-58
2022/09/14 04:28:53;;;;;;;5.67;5.10;;;;;;;19.15;100.00;99206.84;5041150;28;20483;-58
2022/09/14 04:31:20;;;;;;;7.60;4.73;;;;;;;19.12;100.00;99202.56;5045740;28;20491;-57
2022/09/14 04:33:49;;;;;;;6.87;6.20;;;;;;;19.07;100.00;99201.22;5030421;28;20856;-58
2022/09/14 04:36:18;;;;;;;4.23;3.33;;;;;;;19.12;100.00;99202.56;5043749;28;20479;-57
2022/09/14 04:38:45;;;;;;;4.03;3.73;;;;;;;19.32;100.00;99205.44;5030385;28;20486;-57
2022/09/14 04:41:14;;;;;;;5.10;4.67;;;;;;;19.28;100.00;99209.38;5043634;28;20455;-57
2022/09/14 04:43:42;;;;;;;8.17;4.93;;;;;;;19.21;100.00;99207.22;5030252;28;20456;-57
2022/09/14 04:46:13;;;;;;;4.23;3.90;;;;;;;19.20;100.00;99199.25;5043791;28;20477;-57
2022/09/14 04:48:39;;;;;;;7.87;5.23;;;;;;;19.18;100.00;99195.81;5030700;28;20452;-58
2022/09/14 04:51:09;;;;;;;5.20;3.70;;;;;;;19.05;100.00;99187.91;5043151;28;20545;-57
2022/09/14 04:53:37;;;;;;;5.23;3.70;;;;;;;19.19;100.00;99195.72;5030790;28;20506;-57
2022/09/14 04:56:07;;;;;;;4.67;4.33;;;;;;;19.17;100.00;99194.09;5042104;28;20480;-57
2022/09/14 04:58:35;;;;;;;6.70;6.10;;;;;;;19.06;100.00;99189.59;5044897;28;20466;-57
2022/09/14 05:01:03;;;;;;;7.00;6.33;;;;;;;19.14;100.00;99197.03;5041374;28;21006;-57
2022/09/14 05:03:30;;;;;;;6.73;5.20;;;;;;;19.15;100.00;99198.75;5032043;28;20455;-57
2022/09/14 05:06:04;;;;;;;4.83;4.40;;;;;;;19.11;100.00;99203.53;5040672;28;20470;-57
2022/09/14 05:08:31;;;;;;;6.73;5.13;;;;;;;19.11;100.00;99197.31;5033268;28;20464;-57
2022/09/14 05:10:58;;;;;;;5.10;4.70;;;;;;;19.17;100.00;99197.66;5039421;28;20987;-57
2022/09/14 05:13:25;;;;;;;4.97;4.60;;;;;;;19.17;100.00;99204.88;5032628;28;20805;-57
2022/09/14 05:15:51;;;;;;;5.80;4.80;;;;;;;19.18;100.00;99204.75;5039272;28;20475;-57
2022/09/14 05:18:18;;;;;;;9.00;6.10;;;;;;;19.09;100.00;99188.50;5033464;28;20429;-57
2022/09/14 05:20:44;;;;;;;6.57;4.83;;;;;;;19.09;100.00;99192.03;5039776;28;20983;-57
2022/09/14 05:23:11;;;;;;;6.80;4.40;;;;;;;19.20;100.00;99193.88;5045515;28;20505;-57
2022/09/14 05:25:37;;;;;;;5.67;5.27;;;;;;;19.15;100.00;99187.97;5029471;28;20907;-57
2022/09/14 05:28:03;;;;;;;6.87;6.17;;;;;;;19.13;100.00;99184.56;5042848;28;20494;-56
2022/09/14 05:30:30;;;;;;;10.23;7.40;;;;;;;19.12;100.00;99182.84;5029783;28;20488;-57
2022/09/14 05:32:56;;;;;;;4.57;4.27;;;;;;;19.00;100.00;99173.91;5042689;28;21010;-56
2022/09/14 05:35:23;;;;;;;6.57;5.83;;;;;;;19.03;100.00;99175.50;5029449;28;20446;-57
2022/09/14 05:37:49;;;;;;;10.50;3.90;;;;;;;19.02;100.00;99174.66;5042327;28;21014;-57
2022/09/14 05:40:16;;;;;;;3.60;3.30;;;;;;;19.09;100.00;99183.09;5029453;28;20452;-57
2022/09/14 05:42:42;;;;;;;4.20;4.00;;;;;;;19.15;100.00;99183.44;5042258;28;20509;-57
2022/09/14 05:45:09;;;;;;;7.40;4.13;;;;;;;19.23;100.00;99181.00;5029264;28;20480;-56
2022/09/14 05:47:35;;;;;;;10.70;3.70;;;;;;;19.19;100.00;99178.69;5042346;28;20888;-58
2022/09/14 05:50:07;;;;;;;10.77;6.10;;;;;;;19.16;100.00;99184.31;5029034;28;20820;-57
2022/09/14 05:52:33;;;;;;;3.93;3.63;;;;;;;19.15;100.00;99179.91;5042512;28;20469;-58
2022/09/14 05:55:00;;;;;;;4.63;4.03;;;;;;;19.21;100.00;99182.09;5040835;28;20529;-57
2022/09/14 05:57:26;;;;;;;4.70;4.40;;;;;;;19.18;100.00;99185.88;5038582;28;20955;-57
2022/09/14 05:59:53;;;;;;;5.27;4.77;;;;;;;19.17;100.00;99181.47;5037080;28;20882;-57
2022/09/14 06:02:19;;;;;;;5.83;5.20;;;;;;;19.26;100.00;99179.03;5034198;28;20528;-57
2022/09/14 06:04:46;;;;;;;5.90;5.40;;;;;;;19.16;100.00;99176.22;5036726;28;20529;-57
2022/09/14 06:07:12;;;;;;;5.17;4.67;;;;;;;19.14;100.00;99170.09;5034602;28;20496;-57
2022/09/14 06:09:44;;;;;;;5.90;4.67;;;;;;;19.22;100.00;99175.72;5036343;28;20541;-57
2022/09/14 06:12:13;;;;;;;8.57;5.50;;;;;;;19.14;100.00;99164.72;5035041;28;20970;-57
2022/09/14 06:14:39;;;;;;;4.40;2.77;;;;;;;19.11;100.00;99165.81;5035479;28;20548;-57
2022/09/14 06:17:06;;;;;;;4.57;4.17;;;;;;;19.23;100.00;99159.44;5035776;28;20512;-57
2022/09/14 06:19:32;;;;;;;4.87;4.47;;;;;;;19.32;100.00;99163.19;5035017;28;20426;-57
2022/09/14 06:21:59;;;;;;;4.93;4.53;;;;;;;19.28;100.00;99177.06;5047068;28;20442;-56
2022/09/14 06:24:26;;;;;;;5.10;4.70;;;;;;;19.35;100.00;99194.44;5043820;28;20452;-57
2022/09/14 06:26:52;;;;;;;4.60;4.17;;;;;;;19.45;100.00;99184.59;5049041;28;20508;-57
2022/09/14 06:29:18;;;;;;;5.60;4.10;;;;;;;19.48;100.00;99189.75;5037400;28;20460;-57
2022/09/14 06:31:45;;;;;;;4.60;4.20;;;;;;;19.36;100.00;99180.00;5039925;28;20539;-57
2022/09/14 06:34:11;;;;;;;5.87;5.37;;;;;;;19.35;100.00;99181.81;5038442;28;20476;-57
2022/09/14 06:36:37;;;;;;;3.77;3.50;;;;;;;19.37;100.00;99190.63;5039932;28;20471;-57
2022/09/14 06:39:04;;;;;;;3.37;3.17;;;;;;;19.45;100.00;99185.44;5039051;28;20885;-58
2022/09/14 06:41:31;;;;;;;5.00;4.60;;;;;;;19.40;100.00;99184.13;5039681;28;20450;-57
2022/09/14 06:44:00;;;;;;;5.17;4.80;;;;;;;19.29;100.00;99178.75;5038621;28;21005;-57
2022/09/14 06:46:30;;;;;;;6.60;4.97;;;;;;;19.22;100.00;99170.34;5039963;28;20467;-57
2022/09/14 06:49:04;;;;;;;7.37;6.87;;;;;;;19.30;100.00;99169.69;5037648;28;20448;-57
2022/09/14 06:51:36;;;;;;;6.87;4.30;;;;;;;19.39;100.00;99167.09;5041636;28;20567;-58
2022/09/14 06:54:04;;;;;;;5.03;4.53;;;;;;;19.44;100.00;99159.47;5035804;28;20486;-56
2022/09/14 06:56:33;;;;;;;4.07;3.70;;;;;;;19.44;100.00;99151.41;5042313;28;20478;-58
2022/09/14 06:58:59;;;;;;;5.70;3.60;;;;;;;19.43;100.00;99154.22;5048205;28;20429;-57
2022/09/14 07:01:26;;;;;;;12.40;3.80;;;;;;;19.46;100.00;99171.03;5032729;28;20451;-58
2022/09/14 07:03:53;;;;;;;7.03;3.83;;;;;;;19.52;100.00;99165.09;5046016;28;20496;-57
2022/09/14 07:06:23;;;;;;;4.27;3.97;;;;;;;19.45;100.00;99163.03;5032304;28;20912;-57
2022/09/14 07:08:51;;;;;;;5.17;3.97;;;;;;;19.55;100.00;99161.31;5046739;28;20485;-58
2022/09/14 07:11:24;;;;;;;10.63;2.93;;;;;;;19.56;100.00;99157.63;5031928;28;20878;-57
2022/09/14 07:13:59;;;;;;;6.70;4.20;;;;;;;19.66;100.00;99149.63;5045091;28;20494;-58
2022/09/14 07:16:27;;;;;;;2.43;2.33;;;;;;;19.61;100.00;99150.03;5032632;28;20515;-58
2022/09/14 07:18:58;;;;;;;4.37;4.17;;;;;;;19.71;100.00;99153.66;5044539;28;20430;-58
2022/09/14 07:21:25;;;;;;;4.13;3.63;;;;;;;19.69;100.00;99160.16;5040616;28;20495;-58
2022/09/14 07:23:52;;;;;;;3.07;2.87;;;;;;;19.70;100.00;99159.19;5052716;28;20477;-58
2022/09/14 07:26:21;;;;;;;2.87;2.67;;;;;;;19.82;100.00;99160.84;5044820;28;20976;-57
2022/09/14 07:28:52;;;;;;;3.37;3.17;;;;;;;19.95;100.00;99169.59;5041454;28;20425;-57
2022/09/14 07:31:20;;;;;;;4.73;3.43;;;;;;;19.98;100.00;99172.03;5035537;28;20548;-58
2022/09/14 07:33:47;;;;;;;3.50;3.30;;;;;;;19.78;100.00;99164.78;5040969;28;20430;-57
2022/09/14 07:36:14;;;;;;;4.23;3.20;;;;;;;19.84;100.00;99169.66;5035033;28;20502;-58
2022/09/14 07:38:40;;;;;;;2.97;2.67;;;;;;;19.88;100.00;99178.38;5040429;28;20452;-57
2022/09/14 07:41:19;;;;;;;3.90;3.67;;;;;;;19.92;100.00;99188.75;5037653;28;20443;-57
2022/09/14 07:43:54;;;;;;;4.93;4.13;;;;;;;19.81;100.00;99181.56;5038802;28;20434;-57
2022/09/14 07:46:20;;;;;;;6.50;2.90;;;;;;;19.93;100.00;99176.97;5038453;28;20449;-57
2022/09/14 07:48:48;;;;;;;6.53;3.10;;;;;;;19.98;100.00;99187.34;5037359;28;20455;-58
2022/09/14 07:51:15;;;;;;;4.87;4.40;;;;;;;19.90;100.00;99198.81;5038648;28;20519;-58
2022/09/14 07:53:42;;;;;;;3.47;3.17;;;;;;;19.92;100.00;99191.44;5037238;28;20430;-57
2022/09/14 07:56:10;;;;;;;5.47;4.57;;;;;;;19.96;100.00;99183.94;5039443;28;21000;-57
2022/09/14 07:58:37;;;;;;;4.40;3.03;;;;;;;19.95;100.00;99203.81;5049420;28;20463;-57
2022/09/14 08:01:07;;;;;;;2.93;2.73;;;;;;;19.96;100.00;99205.53;5031391;28;20430;-57
2022/09/14 08:03:35;;;;;;;6.83;4.53;;;;;;;20.22;100.00;99206.84;5044426;28;20911;-58
2022/09/14 08:06:04;;;;;;;4.13;3.83;;;;;;;20.15;100.00;99194.00;5031851;28;20491;-59
2022/09/14 08:08:33;;;;;;;2.17;2.07;;;;;;;20.29;100.00;99191.00;5044177;28;20988;-58
2022/09/14 08:11:04;;;;;;;5.97;4.30;;;;;;;19.89;100.00;99189.03;5031186;28;20426;-59
2022/09/14 08:13:34;;;;;;;8.77;3.83;;;;;;;19.99;100.00;99203.41;5044898;28;20844;-59
2022/09/14 08:16:00;;;;;;;2.43;2.27;;;;;;;20.15;100.00;99197.59;5031998;28;20479;-59
2022/09/14 08:18:29;;;;;;;3.40;3.10;;;;;;;20.35;100.00;99199.41;5044186;28;20434;-59
2022/09/14 08:20:56;;;;;;;4.67;2.70;;;;;;;20.46;100.00;99194.97;5042755;28;20485;-59
2022/09/14 08:23:22;;;;;;;5.27;3.27;;;;;;;20.48;100.00;99193.84;5058754;28;20505;-59
2022/09/14 08:25:49;;;;;;;3.07;2.80;;;;;;;20.47;100.00;99197.53;5042784;28;20476;-59
2022/09/14 08:28:15;;;;;;;2.97;2.77;;;;;;;20.43;100.00;99208.75;5041544;28;20500;-58
2022/09/14 08:30:42;;;;;;;2.27;2.17;;;;;;;20.39;100.00;99214.34;5030674;28;20459;-59
2022/09/14 08:33:08;;;;;;;3.20;2.67;;;;;;;20.45;100.00;99218.41;5044023;28;20474;-59
2022/09/14 08:35:41;;;;;;;5.43;2.37;;;;;;;20.42;100.00;99218.66;5030709;28;20542;-59
2022/09/14 08:38:23;;;;;;;2.30;2.20;;;;;;;20.48;100.00;99220.00;5039043;28;20435;-59
2022/09/14 08:40:50;;;;;;;6.00;2.20;;;;;;;20.42;100.00;99210.56;5034328;28;20450;-59
2022/09/14 08:43:18;;;;;;;3.20;2.27;;;;;;;20.53;100.00;99218.59;5039783;28;20428;-58
2022/09/14 08:45:47;;;;;;;3.87;1.70;;;;;;;20.55;100.00;99223.84;5034779;28;20472;-59
2022/09/14 08:48:21;;;;;;;1.93;1.83;;;;;;;20.72;100.00;99228.66;5039592;28;20507;-58
2022/09/14 08:50:52;;;;;;;3.73;2.23;;;;;;;20.60;100.00;99233.28;5033323;28;20426;-59
2022/09/14 08:53:21;;;;;;;1.30;1.20;;;;;;;20.62;100.00;99242.09;5041104;28;20885;-59
2022/09/14 08:55:53;;;;;;;1.80;1.70;;;;;;;20.52;100.00;99243.03;5032051;28;20562;-58
2022/09/14 08:58:46;;;;;;;0.90;0.80;;;;;;;20.38;100.00;99239.63;5045550;28;20874;-58
2022/09/14 09:01:28;;;;;;;1.33;1.23;;;;;;;20.63;100.00;99216.81;5041040;28;20447;-59
2022/09/14 09:04:27;;;;;;;2.87;1.80;;;;;;;20.78;100.00;99211.91;5034254;28;20454;-59
2022/09/14 09:07:31;;;;;;;1.73;1.63;;;;;;;20.79;100.00;99191.16;5034119;28;20499;-59
2022/09/14 09:09:58;;;;;;;1.20;1.10;;;;;;;20.85;100.00;99188.78;5043381;28;20463;-59
2022/09/14 09:12:38;;;;;;;1.60;1.10;;;;;;;20.77;100.00;99196.69;5030419;28;20885;-58
2022/09/14 09:15:30;;;;;;;1.73;1.23;;;;;;;20.80;100.00;99212.63;5043370;28;20504;-59
2022/09/14 09:18:10;;;;;;;1.13;1.07;;;;;;;20.87;100.00;99219.22;5024081;28;20426;-59
2022/09/14 09:20:44;;;;;;;0.83;0.77;;;;;;;20.81;100.00;99216.16;5038344;28;20655;-59
2022/09/14 09:23:19;;;;;;;1.03;0.93;;;;;;;20.98;100.00;99204.75;5043168;28;20447;-59
2022/09/14 09:25:48;;;;;;;4.40;3.07;;;;;;;20.90;100.00;99204.56;5029609;28;20845;-59
2022/09/14 09:28:15;;;;;;;6.93;1.83;;;;;;;21.03;100.00;99207.03;5042692;28;20455;-58
2022/09/14 09:30:43;;;;;;;1.43;1.30;;;;;;;21.03;100.00;99207.03;5029666;28;20848;-58
2022/09/14 09:33:18;;;;;;;3.60;3.23;;;;;;;21.19;100.00;99218.19;5041514;28;20474;-59
2022/09/14 09:35:45;;;;;;;4.30;2.63;;;;;;;21.18;100.00;99202.94;5029888;28;20471;-59
2022/09/14 09:38:23;;;;;;;2.13;2.03;;;;;;;21.16;100.00;99207.66;5042401;28;20500;-59
2022/09/14 09:41:11;;;;;;;2.43;1.70;;;;;;;21.43;100.00;99202.47;5030500;28;20429;-59
2022/09/14 09:43:57;;;;;;;1.63;1.53;;;;;;;21.33;100.00;99190.78;5037108;28;20451;-59
2022/09/14 09:46:24;;;;;;;9.40;2.00;;;;;;;21.30;100.00;99193.78;5035850;28;20470;-59
2022/09/14 09:48:51;;;;;;;2.10;2.00;;;;;;;21.35;100.00;99196.06;5034821;28;20463;-58
2022/09/14 09:51:23;;;;;;;3.57;3.27;;;;;;;21.62;100.00;99181.84;5036638;28;20429;-59
2022/09/14 09:53:51;;;;;;;1.73;1.63;;;;;;;21.51;100.00;99174.72;5033754;28;20881;-59
2022/09/14 09:56:30;;;;;;;1.73;1.63;;;;;;;21.53;100.00;99178.16;5037589;28;20907;-59
2022/09/14 09:58:57;;;;;;;2.33;2.23;;;;;;;21.59;100.00;99175.75;5042089;28;20525;-59
2022/09/14 10:01:32;;;;;;;2.87;2.67;;;;;;;21.60;100.00;99168.47;5029351;28;20455;-59
2022/09/14 10:04:21;;;;;;;4.43;2.43;;;;;;;21.61;100.00;99163.94;5042386;28;20502;-59
2022/09/14 10:06:50;;;;;;;5.13;2.27;;;;;;;21.67;100.00;99152.56;5030571;28;20515;-59
2022/09/14 10:09:20;;;;;;;8.47;3.40;;;;;;;21.65;100.00;99159.94;5040148;28;20437;-59
2022/09/14 10:11:56;;;;;;;6.03;2.57;;;;;;;21.45;100.00;99149.13;5031610;28;20465;-59
2022/09/14 10:14:24;;;;;;;5.00;4.20;;;;;;;21.70;100.00;99153.13;5037821;28;20501;-59
2022/09/14 10:16:51;;;;;;;3.87;3.57;;;;;;;21.77;100.00;99156.09;5033138;28;20452;-59
2022/09/14 10:19:28;;;;;;;6.30;3.80;;;;;;;21.82;100.00;99146.56;5037542;28;21246;-59
2022/09/14 10:22:16;;;;;;;3.77;3.57;;;;;;;21.68;100.00;99140.72;5045739;28;20438;-59
2022/09/14 10:24:53;;;;;;;6.13;3.17;;;;;;;21.71;100.00;99129.63;5037984;28;20451;-59
2022/09/14 10:27:55;;;;;;;3.60;3.23;;;;;;;21.81;100.00;99125.91;5044940;28;20745;-59
2022/09/14 10:30:24;;;;;;;5.20;1.90;;;;;;;21.78;100.00;99122.63;5038218;28;20421;-59
2022/09/14 10:33:01;;;;;;;2.73;2.50;;;;;;;21.93;100.00;99118.50;5045272;28;20541;-59
2022/09/14 10:35:37;;;;;;;3.27;2.97;;;;;;;22.12;100.00;99113.06;5027430;28;20450;-59
2022/09/14 10:38:28;;;;;;;2.87;2.50;;;;;;;22.08;100.00;99111.66;5042336;28;20455;-59
2022/09/14 10:41:09;;;;;;;3.47;2.50;;;;;;;22.12;100.00;99110.38;5031883;28;20519;-60
2022/09/14 10:43:57;;;;;;;3.00;2.70;;;;;;;22.11;100.00;99111.38;5037175;28;20422;-59
2022/09/14 10:46:29;;;;;;;2.80;2.63;;;;;;;22.26;100.00;99102.78;5036676;28;20441;-59
2022/09/14 10:49:12;;;;;;;2.33;2.13;;;;;;;22.13;100.00;99095.84;5033079;28;20437;-59
2022/09/14 10:52:05;;;;;;;2.60;2.40;;;;;;;22.03;100.00;99099.53;5038380;28;20475;-59
2022/09/14 10:54:51;;;;;;;11.40;3.07;;;;;;;22.08;100.00;99094.56;5026601;28;20820;-59
2022/09/14 10:57:43;;;;;;;2.70;2.60;;;;;;;22.27;100.00;99102.63;5025060;28;20425;-59
2022/09/14 11:00:14;;;;;;;7.17;3.30;;;;;;;22.41;100.00;99098.59;5033894;28;20506;-58
2022/09/14 11:03:00;;;;;;;6.00;3.27;;;;;;;22.55;100.00;99099.97;5036704;28;20450;-59
2022/09/14 11:05:36;;;;;;;7.03;4.60;;;;;;;22.50;100.00;99096.84;5030413;28;20470;-59
2022/09/14 11:08:19;;;;;;;3.03;2.83;;;;;;;22.85;100.00;99096.13;5040910;28;20453;-60
2022/09/14 11:11:14;;;;;;;1.70;1.60;;;;;;;23.14;100.00;99095.94;5040518;28;20437;-59
2022/09/14 11:13:58;;;;;;;4.33;3.30;;;;;;;22.85;100.00;99109.69;5037099;28;20465;-59
2022/09/14 11:16:36;;;;;;;2.70;2.50;;;;;;;23.23;100.00;99101.31;5037533;28;20885;-59
2022/09/14 11:19:11;;;;;;;4.67;3.00;;;;;;;23.13;100.00;99099.66;5041657;28;20475;-59
2022/09/14 11:22:02;;;;;;;4.63;2.83;;;;;;;23.52;100.00;99101.09;5047061;28;20973;-58
2022/09/14 11:24:41;;;;;;;4.07;3.70;;;;;;;23.11;100.00;99088.97;5043919;28;20953;-59
2022/09/14 11:27:31;;;;;;;3.93;3.63;;;;;;;23.29;100.00;99083.56;5048257;28;20433;-58
2022/09/14 11:30:10;;;;;;;4.07;3.73;;;;;;;23.55;100.00;99089.06;5032046;28;20505;-59
2022/09/14 11:32:44;;;;;;;6.70;5.17;;;;;;;23.46;100.00;99085.44;5044921;28;20548;-59
2022/09/14 11:35:13;;;;;;;5.40;4.43;;;;;;;23.38;100.00;99090.78;5031791;28;20489;-59
2022/09/14 11:37:48;;;;;;;6.33;4.70;;;;;;;23.44;100.00;99079.34;5045106;28;20451;-59
2022/09/14 11:40:27;;;;;;;5.90;3.50;;;;;;;23.09;100.00;99069.31;5031371;28;20433;-59
2022/09/14 11:42:54;;;;;;;5.70;5.00;;;;;;;23.48;100.00;99071.72;5044559;28;20422;-59
2022/09/14 11:45:34;;;;;;;7.40;4.50;;;;;;;23.28;100.00;99074.56;5031379;28;20533;-59